Terminal Aerodrome Forecast
Issued by NWS

Home | Current Version | Previous Version | Text Only | Print | Product List | Glossary On
Versions: 1 2 3 4 5 6 7 8 9 10 11 12 13 14 15 16 17 18 19 20
000
FTUS41 KALY 252320
TAFPSF
TAF
KPSF 252320Z 2600/2624 25007KT P6SM SCT050 SCT070
      TEMPO 2600/2604 -SHRA BKN050
     FM260900 27004KT P6SM BCFG FEW040
     FM261300 26006KT P6SM SCT040
     FM261600 26007KT P6SM VCSH BKN045 BKN100=

USA.gov is the U.S. government's official web portal to all federal, state and local government web resources and services.